Time;durP1;ratioP1;P1;durP2;ratioP2;P2;SDS_P1;SDS_P2;PMS_P1;PMS_P2;Temp;Humidity;BMP_temperature;BMP_pressure;BME280_temperature;BME280_humidity;BME280_pressure;Samples;Min_cycle;Max_cycle;Signal;HPM_P1;HPM_P2
2022/10/16 00:00:38;;;;;;;;;;;;;;;11.92;100.00;100726.38;5029935;28;19924;-74
2022/10/16 00:03:04;;;;;;;;;;;;;;;11.90;100.00;100730.91;5029821;28;20376;-74
2022/10/16 00:05:29;;;;;;;;;;;;;;;11.90;100.00;100730.91;5033654;28;20043;-73
2022/10/16 00:07:55;;;;;;;;;;;;;;;11.90;100.00;100726.47;5035476;28;19996;-74
2022/10/16 00:10:20;;;;;;;;;;;;;;;11.89;100.00;100724.75;5035014;28;19983;-73
2022/10/16 00:12:46;;;;;;;;;;;;;;;11.88;100.00;100732.78;5034767;28;20378;-73
2022/10/16 00:15:11;;;;;;;;;;;;;;;11.88;100.00;100724.84;5034963;28;19983;-74
2022/10/16 00:17:37;;;;;;;;;;;;;;;11.86;100.00;100726.69;5029669;28;19967;-74
2022/10/16 00:20:02;;;;;;;;;;;;;;;11.87;100.00;100720.47;5035229;28;19928;-74
2022/10/16 00:22:28;;;;;;;;;;;;;;;11.89;100.00;100715.94;5035030;28;19928;-75
2022/10/16 00:24:53;;;;;;;;;;;;;;;11.92;100.00;100715.75;5034936;28;19979;-74
2022/10/16 00:27:19;;;;;;;;;;;;;;;11.94;100.00;100716.56;5033556;28;19960;-75
2022/10/16 00:29:44;;;;;;;;;;;;;;;11.96;100.00;100722.63;5041276;28;19944;-75
2022/10/16 00:32:09;;;;;;;;;;;;;;;11.98;100.00;100707.47;5034341;28;19939;-73
2022/10/16 00:34:35;;;;;;;;;;;;;;;12.02;100.00;100708.16;5032768;28;19928;-74
2022/10/16 00:37:00;;;;;;;;;;;;;;;12.06;100.00;100709.75;5051559;28;19964;-73
2022/10/16 00:39:25;;;;;;;;;;;;;;;12.09;100.00;100705.13;5034247;28;20161;-73
2022/10/16 00:41:51;;;;;;;;;;;;;;;12.11;100.00;100712.16;5033731;28;19933;-74
2022/10/16 00:44:35;;;;;;;;;;;;;;;12.12;100.00;100711.22;5015996;28;19936;-74
2022/10/16 00:47:01;;;;;;;;;;;;;;;12.12;100.00;100704.13;5034039;28;19929;-74
2022/10/16 00:49:26;;;;;;;;;;;;;;;12.13;100.00;100704.97;5034786;28;20010;-74
2022/10/16 00:51:52;;;;;;;;;;;;;;;12.12;100.00;100713.88;5034746;28;19929;-74
2022/10/16 00:54:19;;;;;;;;;;;;;;;12.12;100.00;100713.88;5050200;28;19929;-74
2022/10/16 00:56:45;;;;;;;;;;;;;;;12.12;100.00;100713.88;5028236;28;19925;-74
2022/10/16 00:59:12;;;;;;;;;;;;;;;12.12;100.00;100720.03;5028112;28;20171;-74
2022/10/16 01:01:37;;;;;;;;;;;;;;;12.13;100.00;100713.78;5012392;28;20668;-74
2022/10/16 01:04:03;;;;;;;;;;;;;;;12.15;100.00;100714.56;5033373;28;19929;-74
2022/10/16 01:06:55;;;;;;;;;;;;;;;12.18;100.00;100709.09;5034385;28;19948;-74
2022/10/16 01:09:21;;;;;;;;;;;;;;;12.20;100.00;100709.84;5027572;28;19929;-73
2022/10/16 01:11:50;;;;;;;;;;;;;;;12.26;100.00;100694.53;5050855;28;20384;-75
2022/10/16 01:14:23;;;;;;;;;;;;;;;12.30;100.00;100718.19;5032530;28;20311;-74
2022/10/16 01:16:53;;;;;;;;;;;;;;;12.35;100.00;100715.25;5028805;28;20447;-74
2022/10/16 01:19:31;;;;;;;;;;;;;;;12.36;100.00;100720.50;5027361;28;19925;-75
2022/10/16 01:21:56;;;;;;;;;;;;;;;12.38;100.00;100716.91;5033360;28;19932;-74
2022/10/16 01:24:28;;;;;;;;;;;;;;;12.41;100.00;100714.09;5028041;28;19994;-74
2022/10/16 01:26:59;;;;;;;;;;;;;;;12.41;100.00;100709.63;5012928;28;19924;-74
2022/10/16 01:29:26;;;;;;;;;;;;;;;12.46;100.00;100720.84;5033694;28;20433;-74
2022/10/16 01:31:55;;;;;;;;;;;;;;;12.47;100.00;100719.91;5051480;28;20074;-73
2022/10/16 01:34:22;;;;;;;;;;;;;;;12.47;100.00;100730.53;5035914;28;19924;-74
2022/10/16 01:36:57;;;;;;;;;;;;;;;12.50;100.00;100724.19;5027371;28;19936;-74
2022/10/16 01:39:24;;;;;;;;;;;;;;;12.52;100.00;100732.91;5014914;28;20272;-73
2022/10/16 01:41:52;;;;;;;;;;;;;;;12.53;100.00;100739.09;5028320;28;19931;-74
2022/10/16 01:44:18;;;;;;;;;;;;;;;12.50;100.00;100735.66;5027814;28;20035;-73
2022/10/16 01:46:45;;;;;;;;;;;;;;;12.46;100.00;100744.75;5033323;28;19944;-75
2022/10/16 01:49:10;;;;;;;;;;;;;;;12.42;100.00;100745.00;5033866;28;19956;-74
2022/10/16 01:51:35;;;;;;;;;;;;;;;12.36;100.00;100754.13;5050086;28;20016;-73
2022/10/16 01:54:01;;;;;;;;;;;;;;;12.29;100.00;100750.09;5032967;28;20589;-74
2022/10/16 01:56:26;;;;;;;;;;;;;;;12.23;100.00;100746.00;5050216;28;19968;-74
2022/10/16 01:59:00;;;;;;;;;;;;;;;12.19;100.00;100741.78;5033933;28;20019;-74
2022/10/16 02:01:26;;;;;;;;;;;;;;;12.14;100.00;100746.50;5032608;28;19928;-74
2022/10/16 02:03:51;;;;;;;;;;;;;;;12.11;100.00;100736.91;5027594;28;20002;-74
2022/10/16 02:06:17;;;;;;;;;;;;;;;12.09;100.00;100747.59;5023686;28;20073;-74
2022/10/16 02:08:43;;;;;;;;;;;;;;;12.07;100.00;100748.63;5033053;28;19948;-74
2022/10/16 02:11:09;;;;;;;;;;;;;;;12.04;100.00;100748.78;5031788;28;19948;-74
2022/10/16 02:13:45;;;;;;;;;;;;;;;12.03;100.00;100745.25;5033810;28;19925;-74
2022/10/16 02:16:11;;;;;;;;;;;;;;;12.01;100.00;100755.06;5027578;28;20439;-74
2022/10/16 02:18:36;;;;;;;;;;;;;;;11.99;100.00;100741.00;5033410;28;19929;-74
2022/10/16 02:21:03;;;;;;;;;;;;;;;11.98;100.00;100746.44;5050542;28;20715;-75
2022/10/16 02:23:35;;;;;;;;;;;;;;;11.96;100.00;100751.81;5032929;28;19947;-74
2022/10/16 02:26:02;;;;;;;;;;;;;;;11.95;100.00;100752.75;5028825;28;20295;-74
2022/10/16 02:28:30;;;;;;;;;;;;;;;11.94;100.00;100746.56;5050075;28;20509;-74
2022/10/16 02:30:57;;;;;;;;;;;;;;;11.93;100.00;100741.38;5049734;28;19931;-74
2022/10/16 02:33:22;;;;;;;;;;;;;;;11.91;100.00;100738.78;5033979;28;20487;-75
2022/10/16 02:35:48;;;;;;;;;;;;;;;11.92;100.00;100734.31;5032157;28;19929;-74
2022/10/16 02:38:14;;;;;;;;;;;;;;;11.90;100.00;100744.16;5028752;28;19924;-74
2022/10/16 02:40:39;;;;;;;;;;;;;;;11.89;100.00;100745.09;5032526;28;19925;-74
2022/10/16 02:43:05;;;;;;;;;;;;;;;11.86;100.00;100737.28;5032987;28;19966;-74
2022/10/16 02:45:30;;;;;;;;;;;;;;;11.82;100.00;100740.13;5030360;28;19954;-74
2022/10/16 02:47:56;;;;;;;;;;;;;;;11.79;100.00;100736.78;5029325;28;19924;-74
2022/10/16 02:50:22;;;;;;;;;;;;;;;11.78;100.00;100738.56;5032755;28;19929;-74
2022/10/16 02:52:47;;;;;;;;;;;;;;;11.74;100.00;100731.72;5033090;28;19978;-74
2022/10/16 02:55:12;;;;;;;;;;;;;;;11.72;100.00;100738.88;5032560;28;21852;-74
2022/10/16 02:57:40;;;;;;;;;;;;;;;11.71;100.00;100747.78;5031480;28;19933;-74
2022/10/16 03:00:06;;;;;;;;;;;;;;;11.71;100.00;100734.50;5027930;28;20323;-74
2022/10/16 03:02:31;;;;;;;;;;;;;;;11.72;100.00;100736.22;5029116;28;20646;-74
2022/10/16 03:04:57;;;;;;;;;;;;;;;11.75;100.00;100740.50;5031923;28;20311;-74
2022/10/16 03:07:22;;;;;;;;;;;;;;;11.80;100.00;100731.41;5033670;28;19947;-74
2022/10/16 03:09:47;;;;;;;;;;;;;;;11.84;100.00;100732.09;5027415;28;19976;-74
2022/10/16 03:12:13;;;;;;;;;;;;;;;11.86;100.00;100730.22;5032532;28;19925;-74
2022/10/16 03:14:39;;;;;;;;;;;;;;;11.87;100.00;100736.38;5031967;28;19924;-73
2022/10/16 03:17:05;;;;;;;;;;;;;;;11.89;100.00;100750.41;5031644;28;19955;-73
2022/10/16 03:19:30;;;;;;;;;;;;;;;11.87;100.00;100744.34;5018421;28;19990;-73
2022/10/16 03:21:55;;;;;;;;;;;;;;;11.85;100.00;100759.47;5033927;28;19929;-74
2022/10/16 03:24:21;;;;;;;;;;;;;;;11.83;100.00;100751.59;5030737;28;19933;-74
2022/10/16 03:26:46;;;;;;;;;;;;;;;11.80;100.00;100757.94;5035140;28;19933;-73
2022/10/16 03:29:12;;;;;;;;;;;;;;;11.78;100.00;100753.63;5035566;28;19981;-74
2022/10/16 03:31:37;;;;;;;;;;;;;;;11.74;100.00;100752.94;5043464;28;19951;-74
2022/10/16 03:34:02;;;;;;;;;;;;;;;11.74;100.00;100763.53;5034049;28;19936;-74
2022/10/16 03:36:28;;;;;;;;;;;;;;;11.72;100.00;100760.09;5052642;28;20027;-74
2022/10/16 03:38:53;;;;;;;;;;;;;;;11.73;100.00;100761.84;5034683;28;20010;-74
2022/10/16 03:41:19;;;;;;;;;;;;;;;11.75;100.00;100767.91;5030060;28;19929;-73
2022/10/16 03:43:44;;;;;;;;;;;;;;;11.76;100.00;100782.88;5053026;28;20011;-74
2022/10/16 03:46:09;;;;;;;;;;;;;;;11.78;100.00;100777.50;5034871;28;20018;-74
2022/10/16 03:48:35;;;;;;;;;;;;;;;11.80;100.00;100788.88;5035576;28;19932;-74
2022/10/16 03:51:00;;;;;;;;;;;;;;;11.82;100.00;100774.59;5035430;28;19928;-74
2022/10/16 03:53:26;;;;;;;;;;;;;;;11.85;100.00;100776.25;5029888;28;20323;-74
2022/10/16 03:55:51;;;;;;;;;;;;;;;11.89;100.00;100774.28;5038371;28;19990;-74
2022/10/16 03:58:16;;;;;;;;;;;;;;;11.94;100.00;100769.59;5035362;28;19929;-73
2022/10/16 04:00:42;;;;;;;;;;;;;;;11.98;100.00;100765.84;5034881;28;19975;-74
2022/10/16 04:03:08;;;;;;;;;;;;;;;12.00;100.00;100787.00;5034749;28;19929;-74
2022/10/16 04:05:33;;;;;;;;;;;;;;;11.99;100.00;100791.44;5034614;28;19933;-73
2022/10/16 04:07:58;;;;;;;;;;;;;;;12.00;100.00;100787.00;5029966;28;19931;-73
2022/10/16 04:10:24;;;;;;;;;;;;;;;12.01;100.00;100801.97;5034577;28;19935;-73
2022/10/16 04:12:49;;;;;;;;;;;;;;;12.02;100.00;100807.19;5033276;28;20411;-73
2022/10/16 04:15:15;;;;;;;;;;;;;;;12.02;100.00;100809.84;5037063;28;20569;-74
2022/10/16 04:17:40;;;;;;;;;;;;;;;12.01;100.00;100815.22;5035277;28;19950;-74
2022/10/16 04:20:06;;;;;;;;;;;;;;;12.01;100.00;100816.09;5052511;28;20203;-73
2022/10/16 04:22:31;;;;;;;;;;;;;;;12.01;100.00;100824.06;5034551;28;19956;-74
2022/10/16 04:24:56;;;;;;;;;;;;;;;12.02;100.00;100819.59;5035143;28;19931;-74
2022/10/16 04:27:22;;;;;;;;;;;;;;;12.00;100.00;100816.19;5033970;28;20017;-74
2022/10/16 04:29:47;;;;;;;;;;;;;;;11.96;100.00;100810.16;5035404;28;19954;-74
2022/10/16 04:32:12;;;;;;;;;;;;;;;11.92;100.00;100809.47;5032922;28;19974;-74
2022/10/16 04:34:39;;;;;;;;;;;;;;;11.90;100.00;100815.78;5033840;28;19952;-75
2022/10/16 04:37:04;;;;;;;;;;;;;;;11.86;100.00;100808.91;5029429;28;19964;-74
2022/10/16 04:39:29;;;;;;;;;;;;;;;11.82;100.00;100810.88;5033883;28;20020;-74
2022/10/16 04:41:55;;;;;;;;;;;;;;;11.80;100.00;100821.59;5035678;28;20024;-74
2022/10/16 04:44:20;;;;;;;;;;;;;;;11.76;100.00;100825.31;5034145;28;19933;-74
2022/10/16 04:46:45;;;;;;;;;;;;;;;11.74;100.00;100823.66;5034084;28;20380;-74
2022/10/16 04:49:12;;;;;;;;;;;;;;;11.71;100.00;100826.50;5019616;28;21540;-74
2022/10/16 04:51:37;;;;;;;;;;;;;;;11.67;100.00;100828.44;5034213;28;20008;-74
2022/10/16 04:54:02;;;;;;;;;;;;;;;11.66;100.00;100824.91;5033833;28;20417;-74
2022/10/16 04:56:28;;;;;;;;;;;;;;;11.65;100.00;100833.81;5033677;28;19928;-73
2022/10/16 04:58:53;;;;;;;;;;;;;;;11.66;100.00;100832.03;5035172;28;20024;-73
2022/10/16 05:01:19;;;;;;;;;;;;;;;11.68;100.00;100832.81;5034449;28;20296;-74
2022/10/16 05:03:44;;;;;;;;;;;;;;;11.68;100.00;100838.09;5034130;28;19932;-74
2022/10/16 05:06:09;;;;;;;;;;;;;;;11.66;100.00;100832.88;5033446;28;20055;-74
2022/10/16 05:08:35;;;;;;;;;;;;;;;11.69;100.00;100834.53;5033672;28;19929;-74
2022/10/16 05:11:01;;;;;;;;;;;;;;;11.71;100.00;100843.25;5033228;28;19928;-74
2022/10/16 05:13:26;;;;;;;;;;;;;;;11.73;100.00;100848.47;5028238;28;19925;-73
2022/10/16 05:15:52;;;;;;;;;;;;;;;11.74;100.00;100847.53;5034145;28;19932;-74
2022/10/16 05:18:17;;;;;;;;;;;;;;;11.76;100.00;100854.50;5041892;28;20016;-74
2022/10/16 05:20:42;;;;;;;;;;;;;;;11.77;100.00;100853.56;5033615;28;20270;-74
2022/10/16 05:23:10;;;;;;;;;;;;;;;11.78;100.00;100854.41;5035705;28;20595;-74
2022/10/16 05:25:35;;;;;;;;;;;;;;;11.79;100.00;100858.78;5033997;28;19940;-75
2022/10/16 05:28:01;;;;;;;;;;;;;;;11.81;100.00;100865.72;5033130;28;20337;-75
2022/10/16 05:30:26;;;;;;;;;;;;;;;11.80;100.00;100865.81;5028664;28;19928;-75
2022/10/16 05:32:52;;;;;;;;;;;;;;;11.78;100.00;100873.81;5033398;28;19928;-74
2022/10/16 05:35:17;;;;;;;;;;;;;;;11.76;100.00;100873.06;5050764;28;20310;-74
2022/10/16 05:37:43;;;;;;;;;;;;;;;11.72;100.00;100868.81;5033993;28;19925;-74
2022/10/16 05:40:09;;;;;;;;;;;;;;;11.71;100.00;100868.94;5033310;28;19929;-75
2022/10/16 05:42:34;;;;;;;;;;;;;;;11.67;100.00;100877.00;5032613;28;19928;-75
2022/10/16 05:45:00;;;;;;;;;;;;;;;11.65;100.00;100875.38;5031335;28;19948;-75
2022/10/16 05:47:25;;;;;;;;;;;;;;;11.63;100.00;100877.25;5033017;28;20395;-74
2022/10/16 05:49:51;;;;;;;;;;;;;;;11.62;100.00;100875.53;5032386;28;19939;-75
2022/10/16 05:52:17;;;;;;;;;;;;;;;11.61;100.00;100879.13;5032621;28;19925;-75
2022/10/16 05:54:42;;;;;;;;;;;;;;;11.60;100.00;100888.88;5028666;28;19995;-74
2022/10/16 05:57:08;;;;;;;;;;;;;;;11.62;100.00;100891.44;5049246;28;19929;-75
2022/10/16 05:59:33;;;;;;;;;;;;;;;11.64;100.00;100895.75;5032022;28;19933;-75
2022/10/16 06:01:58;;;;;;;;;;;;;;;11.65;100.00;100886.84;5032939;28;19933;-74
2022/10/16 06:04:24;;;;;;;;;;;;;;;11.68;100.00;100893.81;5047452;28;21041;-75
2022/10/16 06:06:49;;;;;;;;;;;;;;;11.68;100.00;100894.63;5031922;28;20667;-75
2022/10/16 06:09:14;;;;;;;;;;;;;;;11.70;100.00;100896.38;5032231;28;19933;-75
2022/10/16 06:11:40;;;;;;;;;;;;;;;11.71;100.00;100890.97;5027081;28;19982;-76
2022/10/16 06:14:08;;;;;;;;;;;;;;;11.73;100.00;100897.09;5031782;28;19933;-75
2022/10/16 06:16:34;;;;;;;;;;;;;;;11.73;100.00;100902.41;5032574;28;19935;-74
2022/10/16 06:19:00;;;;;;;;;;;;;;;11.76;100.00;100899.56;5010885;28;19925;-75
2022/10/16 06:21:25;;;;;;;;;;;;;;;11.78;100.00;100905.66;5049727;28;20415;-75
2022/10/16 06:23:51;;;;;;;;;;;;;;;11.80;100.00;100906.47;5049525;28;20401;-75
2022/10/16 06:26:18;;;;;;;;;;;;;;;11.81;100.00;100908.16;5014099;28;19940;-74
2022/10/16 06:28:43;;;;;;;;;;;;;;;11.82;100.00;100919.63;5049417;28;19936;-74
2022/10/16 06:31:09;;;;;;;;;;;;;;;11.84;100.00;100922.22;5027548;28;20284;-75
2022/10/16 06:33:35;;;;;;;;;;;;;;;11.83;100.00;100921.38;5011586;28;19983;-74
2022/10/16 06:36:04;;;;;;;;;;;;;;;11.83;100.00;100931.97;5032128;28;20324;-74
2022/10/16 06:38:29;;;;;;;;;;;;;;;11.84;100.00;100933.69;5049830;28;19963;-74
2022/10/16 06:40:55;;;;;;;;;;;;;;;11.84;100.00;100933.69;5031547;28;20445;-74
2022/10/16 06:43:20;;;;;;;;;;;;;;;11.84;100.00;100928.38;5049357;28;20374;-73
2022/10/16 06:45:55;;;;;;;;;;;;;;;11.84;100.00;100932.81;5032294;28;20292;-73
2022/10/16 06:48:21;;;;;;;;;;;;;;;11.82;100.00;100941.72;5049419;28;20041;-73
2022/10/16 06:50:57;;;;;;;;;;;;;;;11.80;100.00;100945.38;5026557;28;20020;-73
2022/10/16 06:53:22;;;;;;;;;;;;;;;11.76;100.00;100952.63;5032221;28;19924;-73
2022/10/16 06:55:48;;;;;;;;;;;;;;;11.74;100.00;100958.94;5031094;28;20273;-73
2022/10/16 06:58:13;;;;;;;;;;;;;;;11.72;100.00;100971.41;5035268;28;20001;-73
2022/10/16 07:00:38;;;;;;;;;;;;;;;11.73;100.00;100987.25;5035992;28;19932;-74
2022/10/16 07:03:04;;;;;;;;;;;;;;;11.74;100.00;100978.38;5036341;28;19937;-74
2022/10/16 07:05:29;;;;;;;;;;;;;;;11.78;100.00;100987.03;5030571;28;19924;-74
2022/10/16 07:07:54;;;;;;;;;;;;;;;11.79;100.00;100989.63;5031074;28;19929;-74
2022/10/16 07:10:23;;;;;;;;;;;;;;;11.81;100.00;100998.34;5036175;28;19955;-75
2022/10/16 07:12:49;;;;;;;;;;;;;;;11.82;100.00;101001.84;5038600;28;20307;-74
2022/10/16 07:15:14;;;;;;;;;;;;;;;11.80;100.00;101017.00;5029982;28;19987;-74
2022/10/16 07:17:40;;;;;;;;;;;;;;;11.76;100.00;101010.97;5035871;28;19967;-74
2022/10/16 07:20:06;;;;;;;;;;;;;;;11.74;100.00;101023.47;5036232;28;19933;-74
2022/10/16 07:22:31;;;;;;;;;;;;;;;11.72;100.00;101017.34;5034514;28;19962;-74
2022/10/16 07:24:56;;;;;;;;;;;;;;;11.71;100.00;101005.03;5036049;28;19967;-74
2022/10/16 07:27:23;;;;;;;;;;;;;;;11.70;100.00;101021.88;5035133;28;19933;-75
2022/10/16 07:29:49;;;;;;;;;;;;;;;11.69;100.00;101028.13;5036255;28;19940;-75
2022/10/16 07:32:14;;;;;;;;;;;;;;;11.71;100.00;101031.53;5035890;28;19929;-74
2022/10/16 07:34:42;;;;;;;;;;;;;;;11.74;100.00;101039.38;5035431;28;19929;-74
2022/10/16 07:37:07;;;;;;;;;;;;;;;11.78;100.00;101035.63;5035806;28;20063;-74
2022/10/16 07:39:33;;;;;;;;;;;;;;;11.84;100.00;101046.88;5035808;28;19956;-74
2022/10/16 07:41:58;;;;;;;;;;;;;;;11.89;100.00;101052.84;5029800;28;20028;-74
2022/10/16 07:44:24;;;;;;;;;;;;;;;11.94;100.00;101048.19;5036074;28;20417;-74
2022/10/16 07:46:49;;;;;;;;;;;;;;;11.98;100.00;101060.34;5035850;28;19972;-74
2022/10/16 07:49:14;;;;;;;;;;;;;;;12.01;100.00;101060.22;5035372;28;20296;-74
2022/10/16 07:51:40;;;;;;;;;;;;;;;12.04;100.00;101070.69;5035531;28;19932;-74
2022/10/16 07:54:05;;;;;;;;;;;;;;;12.06;100.00;101076.81;5035703;28;20006;-74
2022/10/16 07:56:31;;;;;;;;;;;;;;;12.09;100.00;101079.31;5051854;28;19968;-74
2022/10/16 07:58:56;;;;;;;;;;;;;;;12.11;100.00;101078.38;5034845;28;20003;-74
2022/10/16 08:01:21;;;;;;;;;;;;;;;12.11;100.00;101087.19;5034679;28;19936;-74
2022/10/16 08:03:49;;;;;;;;;;;;;;;12.13;100.00;101087.09;5033316;28;19955;-74
2022/10/16 08:06:14;;;;;;;;;;;;;;;12.13;100.00;101090.63;5052078;28;19943;-74
2022/10/16 08:08:40;;;;;;;;;;;;;;;12.14;100.00;101110.94;5029449;28;20375;-74
2022/10/16 08:11:05;;;;;;;;;;;;;;;12.15;100.00;101112.66;5032877;28;19940;-75
2022/10/16 08:13:31;;;;;;;;;;;;;;;12.15;100.00;101106.50;5035034;28;20367;-75
2022/10/16 08:15:56;;;;;;;;;;;;;;;12.15;100.00;101095.88;5034762;28;19932;-74
2022/10/16 08:18:22;;;;;;;;;;;;;;;12.19;100.00;101094.78;5034526;28;19931;-74
2022/10/16 08:20:47;;;;;;;;;;;;;;;12.25;100.00;101113.06;5028743;28;19947;-75
2022/10/16 08:23:13;;;;;;;;;;;;;;;12.40;100.00;101116.78;5033799;28;19936;-74
2022/10/16 08:25:38;;;;;;;;;;;;;;;12.56;100.00;101110.69;5012584;28;19929;-74
2022/10/16 08:28:05;;;;;;;;;;;;;;;12.70;100.00;101118.00;5028039;28;19925;-75
2022/10/16 08:30:31;;;;;;;;;;;;;;;12.78;100.00;101123.78;5032670;28;20422;-75
2022/10/16 08:32:57;;;;;;;;;;;;;;;12.82;100.00;101137.75;5016416;28;19929;-74
2022/10/16 08:35:23;;;;;;;;;;;;;;;12.83;100.00;101135.03;5032773;28;20299;-75
2022/10/16 08:37:48;;;;;;;;;;;;;;;12.83;100.00;101137.69;5028996;28;19963;-75
2022/10/16 08:40:17;;;;;;;;;;;;;;;12.85;100.00;101143.78;5051085;28;20761;-75
2022/10/16 08:42:48;;;;;;;;;;;;;;;12.92;100.00;101147.00;5033708;28;19960;-74
2022/10/16 08:45:15;;;;;;;;;;;;;;;13.01;100.00;101143.00;5028167;28;19925;-74
2022/10/16 08:47:56;;;;;;;;;;;;;;;13.07;100.00;101148.00;5028238;28;20603;-75
2022/10/16 08:50:27;;;;;;;;;;;;;;;13.10;100.00;101153.19;5033667;28;19983;-74
2022/10/16 08:52:53;;;;;;;;;;;;;;;13.13;100.00;101163.63;5033467;28;19929;-74
2022/10/16 08:55:24;;;;;;;;;;;;;;;13.13;100.00;101160.97;5049946;28;19957;-75
2022/10/16 08:57:50;;;;;;;;;;;;;;;13.17;100.00;101164.34;5033693;28;19929;-75
2022/10/16 09:00:15;;;;;;;;;;;;;;;13.21;100.00;101170.38;5027988;28;19936;-75
2022/10/16 09:02:45;;;;;;;;;;;;;;;13.23;100.00;101171.16;5028074;28;19925;-75
2022/10/16 09:05:16;;;;;;;;;;;;;;;13.26;100.00;101181.63;5028029;28;19932;-74
2022/10/16 09:07:45;;;;;;;;;;;;;;;13.27;100.00;101192.19;5023188;28;19925;-75
2022/10/16 09:10:23;;;;;;;;;;;;;;;13.30;100.00;101191.19;5033115;28;20011;-74
2022/10/16 09:12:57;;;;;;;;;;;;;;;13.31;100.00;101195.56;5033738;28;19936;-75
2022/10/16 09:15:23;;;;;;;;;;;;;;;13.34;100.00;101203.34;5027845;28;19931;-75
2022/10/16 09:17:58;;;;;;;;;;;;;;;13.38;100.00;101204.06;5033180;28;19925;-73
2022/10/16 09:20:28;;;;;;;;;;;;;;;13.39;100.00;101200.44;5030367;28;21251;-74
2022/10/16 09:23:14;;;;;;;;;;;;;;;13.42;100.00;101219.78;5026600;28;19946;-76
2022/10/16 09:25:42;;;;;;;;;;;;;;;13.48;100.00;101215.13;5014092;28;20402;-75
2022/10/16 09:28:07;;;;;;;;;;;;;;;13.52;100.00;101229.97;5026295;28;19929;-74
2022/10/16 09:30:33;;;;;;;;;;;;;;;13.60;100.00;101235.75;5048761;28;20338;-75
2022/10/16 09:32:58;;;;;;;;;;;;;;;13.68;100.00;101238.88;5007016;28;19959;-74
2022/10/16 09:35:30;;;;;;;;;;;;;;;13.77;100.00;101226.06;5041298;28;19936;-75
2022/10/16 09:37:55;;;;;;;;;;;;;;;13.79;100.00;101238.31;5046834;28;19936;-75
2022/10/16 09:40:37;;;;;;;;;;;;;;;13.84;100.00;101240.75;5035304;28;19924;-74
2022/10/16 09:43:17;;;;;;;;;;;;;;;13.88;100.00;101228.97;5057675;28;20375;-74
2022/10/16 09:45:43;;;;;;;;;;;;;;;13.87;100.00;101235.25;5034580;28;19924;-75
2022/10/16 09:48:12;;;;;;;;;;;;;;;13.86;100.00;101252.16;5034311;28;19940;-72
2022/10/16 09:50:38;;;;;;;;;;;;;;;13.85;100.00;101247.78;5032976;28;19925;-72
2022/10/16 09:53:13;;;;;;;;;;;;;;;13.88;100.00;101244.94;5044856;28;20201;-73
2022/10/16 09:55:57;;;;;;;;;;;;;;;13.92;100.00;101250.97;5037270;28;20392;-73
2022/10/16 09:58:23;;;;;;;;;;;;;;;13.93;100.00;101253.56;5036438;28;20683;-73
2022/10/16 10:00:49;;;;;;;;;;;;;;;13.97;100.00;101252.47;5026835;28;19943;-73
2022/10/16 10:03:33;;;;;;;;;;;;;;;13.98;100.00;101251.50;5031756;28;19979;-73
2022/10/16 10:05:58;;;;;;;;;;;;;;;14.02;100.00;101269.97;5035337;28;19999;-73
2022/10/16 10:08:24;;;;;;;;;;;;;;;14.03;100.00;101269.03;5021723;28;19924;-74
2022/10/16 10:10:49;;;;;;;;;;;;;;;14.03;100.00;101261.03;5028991;28;20018;-74
2022/10/16 10:13:19;;;;;;;;;;;;;;;14.09;100.00;101260.72;5031190;28;19929;-74
2022/10/16 10:15:44;;;;;;;;;;;;;;;14.15;100.00;101276.34;5022662;28;19987;-72
2022/10/16 10:18:17;;;;;;;;;;;;;;;14.26;100.00;101279.31;5029818;28;19928;-74
2022/10/16 10:20:43;;;;;;;;;;;;;;;14.40;100.00;101291.03;5025825;28;19936;-74
2022/10/16 10:23:22;;;;;;;;;;;;;;;14.50;100.00;101292.22;5023848;28;19936;-74
2022/10/16 10:26:06;;;;;;;;;;;;;;;14.63;100.00;101295.09;5017058;28;20402;-73
2022/10/16 10:28:37;;;;;;;;;;;;;;;14.73;100.00;101310.56;5029875;28;19983;-74
2022/10/16 10:31:06;;;;;;;;;;;;;;;14.75;100.00;101314.00;5031009;28;20655;-74
2022/10/16 10:33:51;;;;;;;;;;;;;;;14.75;100.00;101320.22;5054019;28;20372;-73
2022/10/16 10:36:35;;;;;;;;;;;;;;;14.68;100.00;101326.81;5037288;28;19928;-72
2022/10/16 10:39:02;;;;;;;;;;;;;;;14.61;100.00;101341.41;5045834;28;19928;-72
2022/10/16 10:41:37;;;;;;;;;;;;;;;14.52;100.00;101335.63;5029058;28;19929;-72
2022/10/16 10:44:21;;;;;;;;;;;;;;;14.48;100.00;101338.53;5033986;28;19991;-73
2022/10/16 10:46:55;;;;;;;;;;;;;;;14.39;100.00;101355.91;5031129;28;19929;-73
2022/10/16 10:49:39;;;;;;;;;;;;;;;14.35;100.00;101335.69;5024636;28;20450;-74
2022/10/16 10:52:05;;;;;;;;;;;;;;;14.36;100.00;101346.25;5031929;28;19925;-72
2022/10/16 10:54:38;;;;;;;;;;;;;;;14.38;100.00;101340.81;5031436;28;20543;-73
2022/10/16 10:57:23;;;;;;;;;;;;;;;14.45;100.00;101344.91;5026065;28;19998;-72
2022/10/16 10:59:48;;;;;;;;;;;;;;;14.52;100.00;101356.09;5032026;28;20201;-72
2022/10/16 11:02:20;;;;;;;;;;;;;;;14.58;100.00;101357.53;5048860;28;19924;-72
2022/10/16 11:05:12;;;;;;;;;;;;;;;14.57;100.00;101366.47;5031186;28;20015;-72
2022/10/16 11:07:39;;;;;;;;;;;;;;;14.57;100.00;101363.81;5026906;28;19929;-72
2022/10/16 11:10:09;;;;;;;;;;;;;;;14.55;100.00;101363.06;5025202;28;19936;-72
2022/10/16 11:12:36;;;;;;;;;;;;;;;14.56;100.00;101370.97;5031142;28;19935;-73
2022/10/16 11:15:03;;;;;;;;;;;;;;;14.61;100.00;101360.06;5025178;28;20028;-73
2022/10/16 11:17:30;;;;;;;;;;;;;;;14.65;100.00;101373.13;5025566;28;20061;-73
2022/10/16 11:20:00;;;;;;;;;;;;;;;14.67;100.00;101371.22;5023740;28;20132;-72
2022/10/16 11:22:27;;;;;;;;;;;;;;;14.65;99.82;101388.25;5045216;28;19929;-71
2022/10/16 11:25:05;;;;;;;;;;;;;;;14.65;100.00;101381.13;5032746;28;20462;-71
2022/10/16 11:27:56;;;;;;;;;;;;;;;14.63;100.00;101377.69;5047703;28;19971;-71
2022/10/16 11:30:23;;;;;;;;;;;;;;;14.63;100.00;101387.47;5029052;28;19937;-71
2022/10/16 11:32:51;;;;;;;;;;;;;;;14.61;99.25;101392.03;5030903;28;19929;-71
2022/10/16 11:35:29;;;;;;;;;;;;;;;14.56;99.10;101389.63;5030484;28;20256;-71
2022/10/16 11:37:54;;;;;;;;;;;;;;;14.57;100.00;101385.13;5046994;28;19975;-71
2022/10/16 11:40:29;;;;;;;;;;;;;;;14.56;100.00;101392.28;5047602;28;20023;-71
2022/10/16 11:42:58;;;;;;;;;;;;;;;14.55;100.00;101397.69;5031738;28;19928;-71
2022/10/16 11:45:24;;;;;;;;;;;;;;;14.52;99.18;101396.91;5031597;28;20385;-71
2022/10/16 11:48:08;;;;;;;;;;;;;;;14.55;99.66;101400.34;5030094;28;20019;-71
2022/10/16 11:50:42;;;;;;;;;;;;;;;14.58;97.77;101402.84;5032289;28;20362;-72
2022/10/16 11:53:16;;;;;;;;;;;;;;;14.60;96.20;101407.16;5030951;28;19941;-72
2022/10/16 11:55:42;;;;;;;;;;;;;;;14.62;100.00;101405.28;5047266;28;19963;-72
2022/10/16 11:58:12;;;;;;;;;;;;;;;14.64;98.44;101415.84;5029668;28;20211;-71
2022/10/16 12:00:40;;;;;;;;;;;;;;;14.67;100.00;101421.00;5025063;28;20057;-72
2022/10/16 12:03:11;;;;;;;;;;;;;;;14.69;100.00;101426.25;5029224;28;20419;-72
2022/10/16 12:05:59;;;;;;;;;;;;;;;14.66;99.48;101441.47;5029981;28;19968;-71
2022/10/16 12:08:24;;;;;;;;;;;;;;;14.61;97.40;101440.00;5030164;28;21255;-72
2022/10/16 12:10:50;;;;;;;;;;;;;;;14.61;96.90;101450.66;5032561;28;20075;-72
2022/10/16 12:13:31;;;;;;;;;;;;;;;14.65;96.24;101444.19;5024874;28;20490;-73
2022/10/16 12:16:06;;;;;;;;;;;;;;;14.70;97.39;101442.16;5030178;28;19935;-72
2022/10/16 12:18:31;;;;;;;;;;;;;;;14.71;96.96;101451.03;5029479;28;19925;-72
2022/10/16 12:21:04;;;;;;;;;;;;;;;14.71;97.68;101451.03;5029393;28;20308;-72
2022/10/16 12:23:30;;;;;;;;;;;;;;;14.67;98.45;101458.31;5025144;28;20171;-72
2022/10/16 12:25:56;;;;;;;;;;;;;;;14.61;99.07;101458.66;5024094;28;19929;-72
2022/10/16 12:28:22;;;;;;;;;;;;;;;14.58;98.21;101457.00;5024022;28;20116;-72
2022/10/16 12:30:57;;;;;;;;;;;;;;;14.53;98.51;101464.38;5046640;28;19932;-72